sensor_id;sensor_type;location;lat;lon;timestamp;P1;durP1;ratioP1;P2;durP2;ratioP2
76157;SDS011;64907;51.574;6.502;2022-11-15T00:01:17;14.32;;;11.88;;
76157;SDS011;64907;51.574;6.502;2022-11-15T00:03:43;13.35;;;11.95;;
76157;SDS011;64907;51.574;6.502;2022-11-15T00:06:08;14.13;;;11.77;;
76157;SDS011;64907;51.574;6.502;2022-11-15T00:08:34;14.25;;;11.50;;
76157;SDS011;64907;51.574;6.502;2022-11-15T00:11:00;13.85;;;12.13;;
76157;SDS011;64907;51.574;6.502;2022-11-15T00:13:25;13.55;;;12.07;;
76157;SDS011;64907;51.574;6.502;2022-11-15T00:15:51;15.55;;;12.20;;
76157;SDS011;64907;51.574;6.502;2022-11-15T00:20:45;14.02;;;11.55;;
76157;SDS011;64907;51.574;6.502;2022-11-15T00:23:10;15.98;;;12.88;;
76157;SDS011;64907;51.574;6.502;2022-11-15T00:25:35;15.43;;;12.02;;
76157;SDS011;64907;51.574;6.502;2022-11-15T00:30:37;13.60;;;11.10;;
76157;SDS011;64907;51.574;6.502;2022-11-15T00:33:03;11.55;;;10.35;;
76157;SDS011;64907;51.574;6.502;2022-11-15T00:35:28;13.20;;;11.75;;
76157;SDS011;64907;51.574;6.502;2022-11-15T00:37:53;18.67;;;12.63;;
76157;SDS011;64907;51.574;6.502;2022-11-15T00:40:18;17.33;;;12.37;;
76157;SDS011;64907;51.574;6.502;2022-11-15T00:42:44;12.57;;;10.90;;
76157;SDS011;64907;51.574;6.502;2022-11-15T00:45:09;15.83;;;13.00;;
76157;SDS011;64907;51.574;6.502;2022-11-15T00:47:34;15.13;;;12.02;;
76157;SDS011;64907;51.574;6.502;2022-11-15T00:49:59;14.23;;;11.40;;
76157;SDS011;64907;51.574;6.502;2022-11-15T00:52:24;13.67;;;11.97;;
76157;SDS011;64907;51.574;6.502;2022-11-15T00:54:50;13.18;;;11.60;;
76157;SDS011;64907;51.574;6.502;2022-11-15T00:57:15;14.70;;;12.32;;
76157;SDS011;64907;51.574;6.502;2022-11-15T00:59:40;12.97;;;11.63;;
76157;SDS011;64907;51.574;6.502;2022-11-15T01:02:05;14.40;;;11.87;;
76157;SDS011;64907;51.574;6.502;2022-11-15T01:04:30;15.67;;;12.00;;
76157;SDS011;64907;51.574;6.502;2022-11-15T01:07:02;14.40;;;12.77;;
76157;SDS011;64907;51.574;6.502;2022-11-15T01:09:27;14.32;;;12.82;;
76157;SDS011;64907;51.574;6.502;2022-11-15T01:11:52;16.17;;;12.80;;
76157;SDS011;64907;51.574;6.502;2022-11-15T01:14:17;14.20;;;12.32;;
76157;SDS011;64907;51.574;6.502;2022-11-15T01:16:49;14.33;;;12.83;;
76157;SDS011;64907;51.574;6.502;2022-11-15T01:19:14;12.90;;;11.60;;
76157;SDS011;64907;51.574;6.502;2022-11-15T01:21:39;15.47;;;12.80;;
76157;SDS011;64907;51.574;6.502;2022-11-15T01:24:04;17.07;;;12.40;;
76157;SDS011;64907;51.574;6.502;2022-11-15T01:26:30;18.73;;;11.73;;
76157;SDS011;64907;51.574;6.502;2022-11-15T01:28:55;14.98;;;12.23;;
76157;SDS011;64907;51.574;6.502;2022-11-15T01:31:20;14.27;;;12.63;;
76157;SDS011;64907;51.574;6.502;2022-11-15T01:33:46;13.63;;;11.85;;
76157;SDS011;64907;51.574;6.502;2022-11-15T01:36:15;13.35;;;12.02;;
76157;SDS011;64907;51.574;6.502;2022-11-15T01:38:41;15.77;;;12.07;;
76157;SDS011;64907;51.574;6.502;2022-11-15T01:41:06;13.40;;;12.07;;
76157;SDS011;64907;51.574;6.502;2022-11-15T01:43:32;14.07;;;12.15;;
76157;SDS011;64907;51.574;6.502;2022-11-15T01:48:42;13.52;;;11.70;;
76157;SDS011;64907;51.574;6.502;2022-11-15T01:51:08;13.73;;;12.13;;
76157;SDS011;64907;51.574;6.502;2022-11-15T01:53:35;13.65;;;12.02;;
76157;SDS011;64907;51.574;6.502;2022-11-15T01:56:02;13.32;;;11.02;;
76157;SDS011;64907;51.574;6.502;2022-11-15T01:58:29;13.75;;;11.68;;
76157;SDS011;64907;51.574;6.502;2022-11-15T02:00:54;14.18;;;10.88;;
76157;SDS011;64907;51.574;6.502;2022-11-15T02:03:20;12.75;;;10.27;;
76157;SDS011;64907;51.574;6.502;2022-11-15T02:05:47;12.35;;;10.60;;
76157;SDS011;64907;51.574;6.502;2022-11-15T02:08:12;14.40;;;11.35;;
76157;SDS011;64907;51.574;6.502;2022-11-15T02:10:44;12.75;;;11.40;;
76157;SDS011;64907;51.574;6.502;2022-11-15T02:13:10;12.73;;;10.15;;
76157;SDS011;64907;51.574;6.502;2022-11-15T02:15:37;11.73;;;10.48;;
76157;SDS011;64907;51.574;6.502;2022-11-15T02:18:17;12.63;;;11.38;;
76157;SDS011;64907;51.574;6.502;2022-11-15T02:20:47;11.73;;;10.50;;
76157;SDS011;64907;51.574;6.502;2022-11-15T02:41:06;12.93;;;10.65;;
76157;SDS011;64907;51.574;6.502;2022-11-15T02:43:39;11.55;;;10.35;;
76157;SDS011;64907;51.574;6.502;2022-11-15T02:49:27;14.52;;;10.02;;
76157;SDS011;64907;51.574;6.502;2022-11-15T02:51:53;11.60;;;10.40;;
76157;SDS011;64907;51.574;6.502;2022-11-15T02:54:20;14.48;;;10.65;;
76157;SDS011;64907;51.574;6.502;2022-11-15T02:56:47;10.20;;;9.30;;
76157;SDS011;64907;51.574;6.502;2022-11-15T03:02:02;15.38;;;9.50;;
76157;SDS011;64907;51.574;6.502;2022-11-15T03:06:58;13.50;;;9.93;;
76157;SDS011;64907;51.574;6.502;2022-11-15T03:09:33;13.77;;;9.77;;
76157;SDS011;64907;51.574;6.502;2022-11-15T03:12:33;11.10;;;10.00;;
76157;SDS011;64907;51.574;6.502;2022-11-15T03:14:53;10.50;;;9.32;;
76157;SDS011;64907;51.574;6.502;2022-11-15T03:17:23;10.18;;;9.15;;
76157;SDS011;64907;51.574;6.502;2022-11-15T03:19:55;10.55;;;8.98;;
76157;SDS011;64907;51.574;6.502;2022-11-15T03:22:23;12.02;;;9.60;;
76157;SDS011;64907;51.574;6.502;2022-11-15T03:24:53;9.45;;;8.55;;
76157;SDS011;64907;51.574;6.502;2022-11-15T03:27:20;11.07;;;9.27;;
76157;SDS011;64907;51.574;6.502;2022-11-15T03:29:47;11.50;;;9.13;;
76157;SDS011;64907;51.574;6.502;2022-11-15T03:32:16;10.68;;;9.38;;
76157;SDS011;64907;51.574;6.502;2022-11-15T03:34:53;10.63;;;9.52;;
76157;SDS011;64907;51.574;6.502;2022-11-15T03:37:20;10.68;;;9.57;;
76157;SDS011;64907;51.574;6.502;2022-11-15T03:39:47;11.27;;;9.57;;
76157;SDS011;64907;51.574;6.502;2022-11-15T03:47:17;10.57;;;9.57;;
76157;SDS011;64907;51.574;6.502;2022-11-15T03:49:46;12.07;;;10.30;;
76157;SDS011;64907;51.574;6.502;2022-11-15T03:52:11;11.63;;;10.23;;
76157;SDS011;64907;51.574;6.502;2022-11-15T03:54:37;12.48;;;9.82;;
76157;SDS011;64907;51.574;6.502;2022-11-15T03:57:12;14.38;;;10.88;;
76157;SDS011;64907;51.574;6.502;2022-11-15T03:59:44;12.37;;;10.63;;
76157;SDS011;64907;51.574;6.502;2022-11-15T04:02:09;12.63;;;9.95;;
76157;SDS011;64907;51.574;6.502;2022-11-15T04:04:34;13.33;;;10.50;;
76157;SDS011;64907;51.574;6.502;2022-11-15T04:06:59;12.30;;;10.67;;
76157;SDS011;64907;51.574;6.502;2022-11-15T04:09:24;12.30;;;11.00;;
76157;SDS011;64907;51.574;6.502;2022-11-15T04:11:51;12.10;;;10.90;;
76157;SDS011;64907;51.574;6.502;2022-11-15T04:14:16;14.27;;;11.77;;
76157;SDS011;64907;51.574;6.502;2022-11-15T04:16:41;15.67;;;11.80;;
76157;SDS011;64907;51.574;6.502;2022-11-15T04:19:06;17.23;;;12.87;;
76157;SDS011;64907;51.574;6.502;2022-11-15T04:21:50;17.38;;;12.40;;
76157;SDS011;64907;51.574;6.502;2022-11-15T04:24:34;13.30;;;11.90;;
76157;SDS011;64907;51.574;6.502;2022-11-15T04:26:59;16.67;;;12.73;;
76157;SDS011;64907;51.574;6.502;2022-11-15T04:29:24;20.27;;;13.85;;
76157;SDS011;64907;51.574;6.502;2022-11-15T04:31:59;22.23;;;14.65;;
76157;SDS011;64907;51.574;6.502;2022-11-15T04:34:24;15.77;;;13.15;;
76157;SDS011;64907;51.574;6.502;2022-11-15T04:36:49;17.75;;;13.43;;
76157;SDS011;64907;51.574;6.502;2022-11-15T04:39:33;17.90;;;14.07;;
76157;SDS011;64907;51.574;6.502;2022-11-15T04:41:59;15.77;;;13.90;;
76157;SDS011;64907;51.574;6.502;2022-11-15T04:44:24;18.73;;;13.27;;
76157;SDS011;64907;51.574;6.502;2022-11-15T04:46:49;16.65;;;13.27;;
76157;SDS011;64907;51.574;6.502;2022-11-15T04:49:14;17.40;;;15.40;;
76157;SDS011;64907;51.574;6.502;2022-11-15T04:51:39;20.13;;;15.53;;
76157;SDS011;64907;51.574;6.502;2022-11-15T04:54:05;21.13;;;15.60;;
76157;SDS011;64907;51.574;6.502;2022-11-15T04:56:30;21.13;;;16.02;;
76157;SDS011;64907;51.574;6.502;2022-11-15T05:01:24;17.95;;;15.02;;
76157;SDS011;64907;51.574;6.502;2022-11-15T05:03:49;22.70;;;15.97;;
76157;SDS011;64907;51.574;6.502;2022-11-15T05:06:33;22.67;;;16.90;;
76157;SDS011;64907;51.574;6.502;2022-11-15T05:08:59;16.93;;;15.00;;
76157;SDS011;64907;51.574;6.502;2022-11-15T05:11:24;22.58;;;15.50;;
76157;SDS011;64907;51.574;6.502;2022-11-15T05:13:49;19.48;;;15.95;;
76157;SDS011;64907;51.574;6.502;2022-11-15T05:16:14;21.25;;;15.77;;
76157;SDS011;64907;51.574;6.502;2022-11-15T05:18:40;23.13;;;15.32;;
76157;SDS011;64907;51.574;6.502;2022-11-15T05:21:12;19.33;;;15.68;;
76157;SDS011;64907;51.574;6.502;2022-11-15T05:23:38;17.65;;;15.80;;
76157;SDS011;64907;51.574;6.502;2022-11-15T05:26:04;21.40;;;15.68;;
76157;SDS011;64907;51.574;6.502;2022-11-15T05:28:30;17.77;;;15.60;;
76157;SDS011;64907;51.574;6.502;2022-11-15T05:31:08;17.35;;;14.40;;
76157;SDS011;64907;51.574;6.502;2022-11-15T05:33:34;26.80;;;15.30;;
76157;SDS011;64907;51.574;6.502;2022-11-15T05:36:02;21.63;;;15.02;;
76157;SDS011;64907;51.574;6.502;2022-11-15T05:38:29;18.55;;;14.52;;
76157;SDS011;64907;51.574;6.502;2022-11-15T05:40:54;24.08;;;15.43;;
76157;SDS011;64907;51.574;6.502;2022-11-15T05:43:19;21.15;;;15.02;;
76157;SDS011;64907;51.574;6.502;2022-11-15T05:45:45;16.75;;;14.82;;
76157;SDS011;64907;51.574;6.502;2022-11-15T05:48:10;20.05;;;15.38;;
76157;SDS011;64907;51.574;6.502;2022-11-15T05:50:36;19.85;;;14.70;;
76157;SDS011;64907;51.574;6.502;2022-11-15T05:53:03;18.35;;;16.45;;
76157;SDS011;64907;51.574;6.502;2022-11-15T05:55:29;16.38;;;14.55;;
76157;SDS011;64907;51.574;6.502;2022-11-15T05:57:54;17.23;;;14.32;;
76157;SDS011;64907;51.574;6.502;2022-11-15T06:00:19;17.33;;;14.18;;
76157;SDS011;64907;51.574;6.502;2022-11-15T06:02:46;16.05;;;14.05;;
76157;SDS011;64907;51.574;6.502;2022-11-15T06:05:11;15.10;;;13.50;;
76157;SDS011;64907;51.574;6.502;2022-11-15T06:07:36;17.97;;;14.10;;
76157;SDS011;64907;51.574;6.502;2022-11-15T06:10:01;16.93;;;13.50;;
76157;SDS011;64907;51.574;6.502;2022-11-15T06:14:55;15.80;;;12.45;;
76157;SDS011;64907;51.574;6.502;2022-11-15T06:17:21;17.27;;;14.43;;
76157;SDS011;64907;51.574;6.502;2022-11-15T06:19:46;14.57;;;13.13;;
76157;SDS011;64907;51.574;6.502;2022-11-15T06:22:11;17.17;;;13.52;;
76157;SDS011;64907;51.574;6.502;2022-11-15T06:24:36;15.30;;;13.20;;
76157;SDS011;64907;51.574;6.502;2022-11-15T06:29:37;15.95;;;13.32;;
76157;SDS011;64907;51.574;6.502;2022-11-15T06:32:02;14.52;;;12.68;;
76157;SDS011;64907;51.574;6.502;2022-11-15T06:34:27;16.63;;;14.37;;
76157;SDS011;64907;51.574;6.502;2022-11-15T06:36:52;14.50;;;13.00;;
76157;SDS011;64907;51.574;6.502;2022-11-15T06:39:17;16.53;;;12.27;;
76157;SDS011;64907;51.574;6.502;2022-11-15T06:41:43;15.65;;;12.30;;
76157;SDS011;64907;51.574;6.502;2022-11-15T06:44:08;14.60;;;11.50;;
76157;SDS011;64907;51.574;6.502;2022-11-15T06:46:41;15.60;;;12.55;;
76157;SDS011;64907;51.574;6.502;2022-11-15T06:49:06;12.93;;;10.90;;
76157;SDS011;64907;51.574;6.502;2022-11-15T06:51:31;14.33;;;11.03;;
76157;SDS011;64907;51.574;6.502;2022-11-15T06:53:57;12.27;;;9.67;;
76157;SDS011;64907;51.574;6.502;2022-11-15T06:58:51;16.48;;;10.73;;
76157;SDS011;64907;51.574;6.502;2022-11-15T07:01:16;12.38;;;10.07;;
76157;SDS011;64907;51.574;6.502;2022-11-15T07:03:42;11.50;;;9.95;;
76157;SDS011;64907;51.574;6.502;2022-11-15T07:06:07;12.43;;;9.93;;
76157;SDS011;64907;51.574;6.502;2022-11-15T07:08:33;11.18;;;10.18;;
76157;SDS011;64907;51.574;6.502;2022-11-15T07:10:59;12.57;;;11.25;;
76157;SDS011;64907;51.574;6.502;2022-11-15T07:13:25;11.50;;;9.80;;
76157;SDS011;64907;51.574;6.502;2022-11-15T07:15:51;14.05;;;10.50;;
76157;SDS011;64907;51.574;6.502;2022-11-15T07:18:17;12.18;;;9.60;;
76157;SDS011;64907;51.574;6.502;2022-11-15T07:20:42;10.75;;;9.32;;
76157;SDS011;64907;51.574;6.502;2022-11-15T07:23:08;12.65;;;11.35;;
76157;SDS011;64907;51.574;6.502;2022-11-15T07:25:33;9.88;;;8.88;;
76157;SDS011;64907;51.574;6.502;2022-11-15T07:27:58;11.15;;;10.05;;
76157;SDS011;64907;51.574;6.502;2022-11-15T07:30:24;9.68;;;8.88;;
76157;SDS011;64907;51.574;6.502;2022-11-15T07:32:53;10.25;;;8.80;;
76157;SDS011;64907;51.574;6.502;2022-11-15T07:35:18;10.18;;;8.30;;
76157;SDS011;64907;51.574;6.502;2022-11-15T07:37:43;8.67;;;7.87;;
76157;SDS011;64907;51.574;6.502;2022-11-15T07:40:09;8.82;;;7.95;;
76157;SDS011;64907;51.574;6.502;2022-11-15T07:42:34;10.35;;;6.82;;
76157;SDS011;64907;51.574;6.502;2022-11-15T07:45:18;8.02;;;5.70;;
76157;SDS011;64907;51.574;6.502;2022-11-15T07:47:49;6.28;;;5.80;;
76157;SDS011;64907;51.574;6.502;2022-11-15T07:50:15;6.07;;;5.50;;
76157;SDS011;64907;51.574;6.502;2022-11-15T07:52:40;6.13;;;5.60;;
76157;SDS011;64907;51.574;6.502;2022-11-15T07:55:06;7.97;;;5.30;;
76157;SDS011;64907;51.574;6.502;2022-11-15T07:57:31;5.70;;;5.30;;
76157;SDS011;64907;51.574;6.502;2022-11-15T07:59:56;5.30;;;4.77;;
76157;SDS011;64907;51.574;6.502;2022-11-15T08:02:21;5.60;;;5.10;;
76157;SDS011;64907;51.574;6.502;2022-11-15T08:04:47;5.07;;;4.55;;
76157;SDS011;64907;51.574;6.502;2022-11-15T08:07:13;5.17;;;4.63;;
76157;SDS011;64907;51.574;6.502;2022-11-15T08:09:38;4.97;;;4.43;;
76157;SDS011;64907;51.574;6.502;2022-11-15T08:12:03;6.23;;;5.07;;
76157;SDS011;64907;51.574;6.502;2022-11-15T08:14:29;4.55;;;4.25;;
76157;SDS011;64907;51.574;6.502;2022-11-15T08:16:54;6.47;;;4.28;;
76157;SDS011;64907;51.574;6.502;2022-11-15T08:19:20;6.93;;;4.40;;
76157;SDS011;64907;51.574;6.502;2022-11-15T08:21:45;3.80;;;3.60;;
76157;SDS011;64907;51.574;6.502;2022-11-15T08:24:10;3.37;;;3.27;;
76157;SDS011;64907;51.574;6.502;2022-11-15T08:26:35;3.70;;;3.50;;
76157;SDS011;64907;51.574;6.502;2022-11-15T08:29:01;5.03;;;3.50;;
76157;SDS011;64907;51.574;6.502;2022-11-15T08:31:26;3.10;;;3.00;;
76157;SDS011;64907;51.574;6.502;2022-11-15T08:33:51;3.87;;;3.57;;
76157;SDS011;64907;51.574;6.502;2022-11-15T08:36:17;3.07;;;2.87;;
76157;SDS011;64907;51.574;6.502;2022-11-15T08:38:42;3.47;;;3.20;;
76157;SDS011;64907;51.574;6.502;2022-11-15T08:41:12;4.17;;;3.77;;
76157;SDS011;64907;51.574;6.502;2022-11-15T08:43:38;3.13;;;2.83;;
76157;SDS011;64907;51.574;6.502;2022-11-15T08:46:03;2.83;;;2.50;;
76157;SDS011;64907;51.574;6.502;2022-11-15T08:48:29;3.58;;;2.55;;
76157;SDS011;64907;51.574;6.502;2022-11-15T08:50:55;3.55;;;2.72;;
76157;SDS011;64907;51.574;6.502;2022-11-15T08:53:21;2.80;;;2.33;;
76157;SDS011;64907;51.574;6.502;2022-11-15T08:55:46;2.40;;;2.30;;
76157;SDS011;64907;51.574;6.502;2022-11-15T08:58:11;6.00;;;2.78;;
76157;SDS011;64907;51.574;6.502;2022-11-15T09:00:36;2.72;;;2.53;;
76157;SDS011;64907;51.574;6.502;2022-11-15T09:03:05;2.72;;;2.53;;
76157;SDS011;64907;51.574;6.502;2022-11-15T09:05:31;2.30;;;2.20;;
76157;SDS011;64907;51.574;6.502;2022-11-15T09:07:56;2.83;;;2.25;;
76157;SDS011;64907;51.574;6.502;2022-11-15T09:10:21;4.75;;;2.45;;
76157;SDS011;64907;51.574;6.502;2022-11-15T09:12:47;4.22;;;2.05;;
76157;SDS011;64907;51.574;6.502;2022-11-15T09:15:13;2.10;;;1.88;;
76157;SDS011;64907;51.574;6.502;2022-11-15T09:17:38;2.10;;;1.98;;
76157;SDS011;64907;51.574;6.502;2022-11-15T09:20:05;2.22;;;1.88;;
76157;SDS011;64907;51.574;6.502;2022-11-15T09:22:30;2.17;;;2.00;;
76157;SDS011;64907;51.574;6.502;2022-11-15T09:24:55;2.77;;;1.70;;
76157;SDS011;64907;51.574;6.502;2022-11-15T09:27:21;2.35;;;1.73;;
76157;SDS011;64907;51.574;6.502;2022-11-15T09:29:46;1.92;;;1.80;;
76157;SDS011;64907;51.574;6.502;2022-11-15T09:32:11;1.93;;;1.83;;
76157;SDS011;64907;51.574;6.502;2022-11-15T09:34:36;2.00;;;1.90;;
76157;SDS011;64907;51.574;6.502;2022-11-15T09:37:01;3.40;;;2.20;;
76157;SDS011;64907;51.574;6.502;2022-11-15T09:39:26;5.43;;;2.27;;
76157;SDS011;64907;51.574;6.502;2022-11-15T09:49:38;1.90;;;1.83;;
76157;SDS011;64907;51.574;6.502;2022-11-15T09:52:04;1.88;;;1.77;;
76157;SDS011;64907;51.574;6.502;2022-11-15T09:54:36;1.98;;;1.67;;
76157;SDS011;64907;51.574;6.502;2022-11-15T10:04:37;2.50;;;2.30;;
76157;SDS011;64907;51.574;6.502;2022-11-15T10:09:51;3.00;;;2.30;;
76157;SDS011;64907;51.574;6.502;2022-11-15T10:15:03;2.40;;;2.30;;
76157;SDS011;64907;51.574;6.502;2022-11-15T10:17:33;2.47;;;2.38;;
76157;SDS011;64907;51.574;6.502;2022-11-15T10:22:41;2.88;;;2.20;;
76157;SDS011;64907;51.574;6.502;2022-11-15T10:27:34;3.70;;;2.28;;
76157;SDS011;64907;51.574;6.502;2022-11-15T10:29:59;3.85;;;1.90;;
76157;SDS011;64907;51.574;6.502;2022-11-15T10:32:25;2.08;;;1.92;;
76157;SDS011;64907;51.574;6.502;2022-11-15T10:34:50;4.35;;;1.98;;
76157;SDS011;64907;51.574;6.502;2022-11-15T10:37:26;2.35;;;2.15;;
76157;SDS011;64907;51.574;6.502;2022-11-15T10:40:05;4.40;;;2.08;;
76157;SDS011;64907;51.574;6.502;2022-11-15T10:42:32;1.92;;;1.77;;
76157;SDS011;64907;51.574;6.502;2022-11-15T10:44:57;4.88;;;2.28;;
76157;SDS011;64907;51.574;6.502;2022-11-15T10:47:30;2.20;;;2.10;;
76157;SDS011;64907;51.574;6.502;2022-11-15T10:50:04;4.50;;;1.73;;
76157;SDS011;64907;51.574;6.502;2022-11-15T10:52:30;2.95;;;2.08;;
76157;SDS011;64907;51.574;6.502;2022-11-15T10:54:58;2.00;;;1.90;;
76157;SDS011;64907;51.574;6.502;2022-11-15T10:57:28;2.75;;;2.55;;
76157;SDS011;64907;51.574;6.502;2022-11-15T10:59:56;3.95;;;2.65;;
76157;SDS011;64907;51.574;6.502;2022-11-15T11:02:32;2.25;;;2.15;;
76157;SDS011;64907;51.574;6.502;2022-11-15T11:04:59;2.90;;;2.70;;
76157;SDS011;64907;51.574;6.502;2022-11-15T11:07:25;3.17;;;2.15;;
76157;SDS011;64907;51.574;6.502;2022-11-15T11:12:35;2.30;;;2.20;;
76157;SDS011;64907;51.574;6.502;2022-11-15T11:15:05;2.15;;;1.88;;
76157;SDS011;64907;51.574;6.502;2022-11-15T11:17:36;2.13;;;2.03;;
76157;SDS011;64907;51.574;6.502;2022-11-15T11:20:09;2.20;;;1.98;;
76157;SDS011;64907;51.574;6.502;2022-11-15T11:27:59;1.47;;;1.40;;
76157;SDS011;64907;51.574;6.502;2022-11-15T11:38:17;1.75;;;1.40;;
76157;SDS011;64907;51.574;6.502;2022-11-15T11:40:48;1.90;;;1.80;;
76157;SDS011;64907;51.574;6.502;2022-11-15T11:43:19;2.80;;;1.30;;
76157;SDS011;64907;51.574;6.502;2022-11-15T11:50:52;2.75;;;1.55;;
76157;SDS011;64907;51.574;6.502;2022-11-15T11:55:47;1.80;;;1.57;;
76157;SDS011;64907;51.574;6.502;2022-11-15T11:58:26;1.67;;;1.30;;
76157;SDS011;64907;51.574;6.502;2022-11-15T12:05:56;1.52;;;1.42;;
76157;SDS011;64907;51.574;6.502;2022-11-15T12:10:48;2.92;;;1.25;;
76157;SDS011;64907;51.574;6.502;2022-11-15T12:13:19;1.02;;;1.02;;
76157;SDS011;64907;51.574;6.502;2022-11-15T12:18:21;2.00;;;1.40;;
76157;SDS011;64907;51.574;6.502;2022-11-15T12:20:52;2.78;;;1.30;;
76157;SDS011;64907;51.574;6.502;2022-11-15T12:23:28;3.15;;;1.27;;
76157;SDS011;64907;51.574;6.502;2022-11-15T12:26:07;4.97;;;1.70;;
76157;SDS011;64907;51.574;6.502;2022-11-15T12:28:45;3.58;;;1.80;;
76157;SDS011;64907;51.574;6.502;2022-11-15T12:31:12;2.25;;;1.58;;
76157;SDS011;64907;51.574;6.502;2022-11-15T12:33:42;4.72;;;1.33;;
76157;SDS011;64907;51.574;6.502;2022-11-15T12:39:07;4.25;;;1.60;;
76157;SDS011;64907;51.574;6.502;2022-11-15T12:41:39;2.40;;;1.70;;
76157;SDS011;64907;51.574;6.502;2022-11-15T12:44:05;4.03;;;1.33;;
76157;SDS011;64907;51.574;6.502;2022-11-15T12:49:09;1.52;;;1.40;;
76157;SDS011;64907;51.574;6.502;2022-11-15T13:02:20;1.80;;;1.70;;
76157;SDS011;64907;51.574;6.502;2022-11-15T13:04:46;2.55;;;1.00;;
76157;SDS011;64907;51.574;6.502;2022-11-15T13:09:56;2.35;;;1.38;;
76157;SDS011;64907;51.574;6.502;2022-11-15T13:14:50;3.47;;;1.30;;
76157;SDS011;64907;51.574;6.502;2022-11-15T13:19:48;2.53;;;1.13;;
76157;SDS011;64907;51.574;6.502;2022-11-15T13:22:14;1.15;;;1.15;;
76157;SDS011;64907;51.574;6.502;2022-11-15T13:24:58;1.65;;;1.55;;
76157;SDS011;64907;51.574;6.502;2022-11-15T13:27:24;2.03;;;1.20;;
76157;SDS011;64907;51.574;6.502;2022-11-15T13:29:49;2.92;;;1.33;;
76157;SDS011;64907;51.574;6.502;2022-11-15T13:32:15;6.38;;;1.55;;
76157;SDS011;64907;51.574;6.502;2022-11-15T13:34:44;1.77;;;1.25;;
76157;SDS011;64907;51.574;6.502;2022-11-15T13:39:45;3.22;;;1.48;;
76157;SDS011;64907;51.574;6.502;2022-11-15T13:42:18;6.18;;;1.27;;
76157;SDS011;64907;51.574;6.502;2022-11-15T13:44:54;1.77;;;1.25;;
76157;SDS011;64907;51.574;6.502;2022-11-15T13:47:20;1.83;;;1.45;;
76157;SDS011;64907;51.574;6.502;2022-11-15T13:49:45;2.53;;;1.40;;
76157;SDS011;64907;51.574;6.502;2022-11-15T13:52:11;3.30;;;1.38;;
76157;SDS011;64907;51.574;6.502;2022-11-15T13:59:43;1.77;;;1.20;;
76157;SDS011;64907;51.574;6.502;2022-11-15T14:02:14;3.00;;;1.15;;
76157;SDS011;64907;51.574;6.502;2022-11-15T14:04:48;1.98;;;1.00;;
76157;SDS011;64907;51.574;6.502;2022-11-15T14:09:43;2.65;;;1.48;;
76157;SDS011;64907;51.574;6.502;2022-11-15T14:12:25;1.23;;;0.90;;
76157;SDS011;64907;51.574;6.502;2022-11-15T14:14:50;1.25;;;0.90;;
76157;SDS011;64907;51.574;6.502;2022-11-15T14:19:54;7.00;;;1.33;;
76157;SDS011;64907;51.574;6.502;2022-11-15T14:22:23;4.88;;;1.08;;
76157;SDS011;64907;51.574;6.502;2022-11-15T14:27:34;3.70;;;1.42;;
76157;SDS011;64907;51.574;6.502;2022-11-15T14:30:00;7.55;;;1.65;;
76157;SDS011;64907;51.574;6.502;2022-11-15T14:32:29;2.00;;;1.20;;
76157;SDS011;64907;51.574;6.502;2022-11-15T14:34:56;2.47;;;1.30;;
76157;SDS011;64907;51.574;6.502;2022-11-15T14:37:24;3.60;;;1.40;;
76157;SDS011;64907;51.574;6.502;2022-11-15T14:39:49;2.00;;;1.27;;
76157;SDS011;64907;51.574;6.502;2022-11-15T14:42:14;1.88;;;1.23;;
76157;SDS011;64907;51.574;6.502;2022-11-15T14:44:40;2.15;;;1.00;;
76157;SDS011;64907;51.574;6.502;2022-11-15T14:47:06;3.47;;;1.55;;
76157;SDS011;64907;51.574;6.502;2022-11-15T14:49:34;1.65;;;1.40;;
76157;SDS011;64907;51.574;6.502;2022-11-15T14:51:59;5.93;;;1.42;;
76157;SDS011;64907;51.574;6.502;2022-11-15T14:54:25;3.37;;;1.50;;
76157;SDS011;64907;51.574;6.502;2022-11-15T14:56:52;2.10;;;1.23;;
76157;SDS011;64907;51.574;6.502;2022-11-15T14:59:17;3.85;;;1.92;;
76157;SDS011;64907;51.574;6.502;2022-11-15T15:01:42;2.70;;;1.35;;
76157;SDS011;64907;51.574;6.502;2022-11-15T15:04:09;1.50;;;1.40;;
76157;SDS011;64907;51.574;6.502;2022-11-15T15:06:35;1.10;;;1.10;;
76157;SDS011;64907;51.574;6.502;2022-11-15T15:09:00;2.40;;;1.40;;
76157;SDS011;64907;51.574;6.502;2022-11-15T15:11:26;4.80;;;1.27;;
76157;SDS011;64907;51.574;6.502;2022-11-15T15:16:22;2.58;;;1.52;;
76157;SDS011;64907;51.574;6.502;2022-11-15T15:18:47;6.70;;;2.15;;
76157;SDS011;64907;51.574;6.502;2022-11-15T15:21:23;4.85;;;1.50;;
76157;SDS011;64907;51.574;6.502;2022-11-15T15:23:48;4.93;;;1.85;;
76157;SDS011;64907;51.574;6.502;2022-11-15T15:26:14;3.35;;;1.65;;
76157;SDS011;64907;51.574;6.502;2022-11-15T15:28:39;1.70;;;1.60;;
76157;SDS011;64907;51.574;6.502;2022-11-15T15:31:04;1.80;;;1.30;;
76157;SDS011;64907;51.574;6.502;2022-11-15T15:33:30;6.93;;;2.05;;
76157;SDS011;64907;51.574;6.502;2022-11-15T15:35:55;2.30;;;1.20;;
76157;SDS011;64907;51.574;6.502;2022-11-15T15:38:20;3.60;;;1.50;;
76157;SDS011;64907;51.574;6.502;2022-11-15T15:40:46;8.48;;;1.77;;
76157;SDS011;64907;51.574;6.502;2022-11-15T15:43:11;3.67;;;1.60;;
76157;SDS011;64907;51.574;6.502;2022-11-15T15:45:37;1.75;;;1.63;;
76157;SDS011;64907;51.574;6.502;2022-11-15T15:48:04;5.03;;;1.85;;
76157;SDS011;64907;51.574;6.502;2022-11-15T15:50:34;3.88;;;1.80;;
76157;SDS011;64907;51.574;6.502;2022-11-15T15:53:01;2.10;;;1.90;;
76157;SDS011;64907;51.574;6.502;2022-11-15T15:55:27;2.05;;;1.90;;
76157;SDS011;64907;51.574;6.502;2022-11-15T15:57:53;2.63;;;2.00;;
76157;SDS011;64907;51.574;6.502;2022-11-15T16:00:19;2.92;;;2.42;;
76157;SDS011;64907;51.574;6.502;2022-11-15T16:02:44;2.15;;;1.92;;
76157;SDS011;64907;51.574;6.502;2022-11-15T16:05:10;4.53;;;2.90;;
76157;SDS011;64907;51.574;6.502;2022-11-15T16:07:36;2.30;;;2.20;;
76157;SDS011;64907;51.574;6.502;2022-11-15T16:10:02;3.53;;;2.30;;
76157;SDS011;64907;51.574;6.502;2022-11-15T16:12:33;3.17;;;2.60;;
76157;SDS011;64907;51.574;6.502;2022-11-15T16:14:58;4.10;;;2.45;;
76157;SDS011;64907;51.574;6.502;2022-11-15T16:17:26;2.92;;;2.65;;
76157;SDS011;64907;51.574;6.502;2022-11-15T16:19:53;2.55;;;2.35;;
76157;SDS011;64907;51.574;6.502;2022-11-15T16:22:18;5.45;;;2.50;;
76157;SDS011;64907;51.574;6.502;2022-11-15T16:24:43;2.60;;;2.40;;
76157;SDS011;64907;51.574;6.502;2022-11-15T16:27:12;3.92;;;2.72;;
76157;SDS011;64907;51.574;6.502;2022-11-15T16:29:38;2.70;;;2.25;;
76157;SDS011;64907;51.574;6.502;2022-11-15T16:32:03;2.60;;;2.40;;
76157;SDS011;64907;51.574;6.502;2022-11-15T16:34:28;3.30;;;3.00;;
76157;SDS011;64907;51.574;6.502;2022-11-15T16:36:54;4.43;;;2.72;;
76157;SDS011;64907;51.574;6.502;2022-11-15T16:39:19;3.17;;;2.75;;
76157;SDS011;64907;51.574;6.502;2022-11-15T16:41:44;4.20;;;3.10;;
76157;SDS011;64907;51.574;6.502;2022-11-15T16:44:12;3.95;;;3.08;;
76157;SDS011;64907;51.574;6.502;2022-11-15T16:49:16;2.72;;;2.63;;
76157;SDS011;64907;51.574;6.502;2022-11-15T16:51:41;7.88;;;2.90;;
76157;SDS011;64907;51.574;6.502;2022-11-15T16:54:08;4.18;;;2.45;;
76157;SDS011;64907;51.574;6.502;2022-11-15T16:56:37;3.42;;;2.45;;
76157;SDS011;64907;51.574;6.502;2022-11-15T16:59:02;3.20;;;2.88;;
76157;SDS011;64907;51.574;6.502;2022-11-15T17:01:31;2.80;;;2.60;;
76157;SDS011;64907;51.574;6.502;2022-11-15T17:03:57;3.38;;;3.13;;
76157;SDS011;64907;51.574;6.502;2022-11-15T17:06:24;5.20;;;2.85;;
76157;SDS011;64907;51.574;6.502;2022-11-15T17:08:50;2.65;;;2.45;;